Briefing drone pour Nevers (LFQG)

Rechercher une autre localisation

Conditions de vol :


Nous sommes le : Mardi 29 septembre 2020
Il est 11:01 UTC (13:01 LT)

Lever de soleil : 05:17 UTC (07:17 LT)
Coucher de soleil : 17:57 UTC (19:57 LT)

Météo

L'essentiel des conditions de vol

VIGILANCE MÉTÉO FRANCE - Nièvre (58)
Pas de vigilances particulieres
CARTES DES FRONTS
METAR de LFQG
LFQG 291030Z AUTO VRB02KT 9999 OVC007 14/12 Q1021

Date d'émission: 29/09/2020
Heure d'émission: 10:30 UTC
Vent: Variable 2 KT (4 km/h)
Visibilité horizontale: > 10 km
Plafond :
- Couvert à 700ft (213m)
Température: 14 °C
Point de rosée: 12 °C
Humidité: 88%
Pression (QNH): 1021 hPa
Prévision 24h pour Nevers
Vent : 141° pour 1 KT (5 km/h)
Temperature Maxi: 8 °C
Temperature Min: 8 °C
Humidité : 98%
Condition : Ciel dégagé



Warning: count(): Parameter must be an array or an object that implements Countable in /homepages/6/d509196549/htdocs/droneoxygene/briefing.php on line 743
WEBCAM POUR NEVERS

Réglementation

Voler en sécurité

CARTES AERONAUTIQUE 1/500.000
CARTES VAC (LFQG)
SUP AIP




Chargement des AIP...
NOTAM (NEVERS + Terrain à proximité / FIR )




Chargement des NOTAMS...
CONTACT PREFECTURE 58


Avertissement : Les données mises à disposition sont indicatives. Oxygène Drone ne pourra être tenu responsable de dégâts causés aux biens et aux personnes.